Time;durP1;ratioP1;P1;durP2;ratioP2;P2;SDS_P1;SDS_P2;PMS_P1;PMS_P2;Temp;Humidity;BMP_temperature;BMP_pressure;BME280_temperature;BME280_humidity;BME280_pressure;Samples;Min_cycle;Max_cycle;Signal;HPM_P1;HPM_P2
2022/11/07 00:01:41;;;;;;;45.30;26.50;;;;;;;4.64;86.46;100330.48;99551;1288;138161;-73
2022/11/07 00:04:08;;;;;;;42.60;25.80;;;;;;;4.64;86.56;100328.42;99728;1290;97882;-74
2022/11/07 00:06:36;;;;;;;44.60;24.70;;;;;;;4.64;86.81;100329.11;99779;1297;110584;-74
2022/11/07 00:09:03;;;;;;;44.50;26.50;;;;;;;4.63;86.76;100323.09;99686;1281;138265;-74
2022/11/07 00:11:30;;;;;;;43.00;25.90;;;;;;;4.63;86.92;100319.30;99806;1290;98330;-74
2022/11/07 00:13:57;;;;;;;43.30;24.90;;;;;;;4.63;86.90;100324.47;99594;1283;138196;-75
2022/11/07 00:16:25;;;;;;;43.50;24.70;;;;;;;4.63;86.98;100323.61;99714;1297;97885;-74
2022/11/07 00:18:52;;;;;;;39.70;24.90;;;;;;;4.66;87.20;100315.33;99535;1290;138498;-74
2022/11/07 00:21:19;;;;;;;40.80;23.40;;;;;;;4.68;87.09;100313.43;99620;1299;108446;-74
2022/11/07 00:23:46;;;;;;;36.80;22.60;;;;;;;4.72;87.36;100309.09;99767;1285;97819;-74
2022/11/07 00:26:14;;;;;;;39.60;24.60;;;;;;;4.78;87.23;100306.28;99714;1297;138392;-74
2022/11/07 00:28:42;;;;;;;41.80;24.20;;;;;;;4.84;87.33;100299.17;99788;1288;97912;-74
2022/11/07 00:31:11;;;;;;;38.90;24.20;;;;;;;4.91;87.37;100289.14;99711;1291;137711;-74
2022/11/07 00:33:38;;;;;;;41.50;24.40;;;;;;;4.96;87.34;100282.35;99768;1291;107235;-74
2022/11/07 00:36:06;;;;;;;39.10;23.80;;;;;;;5.01;87.55;100280.23;99743;1293;97827;-74
2022/11/07 00:38:33;;;;;;;39.10;23.00;;;;;;;5.03;87.36;100273.70;99312;1288;138295;-74
2022/11/07 00:41:02;;;;;;;36.50;22.80;;;;;;;5.07;87.50;100270.90;99517;1291;97794;-74
2022/11/07 00:43:29;;;;;;;41.00;22.90;;;;;;;5.10;87.45;100267.08;99344;1281;138313;-74
2022/11/07 00:45:56;;;;;;;37.60;22.00;;;;;;;5.15;87.46;100262.55;99444;1289;107590;-74
2022/11/07 00:48:23;;;;;;;37.50;21.40;;;;;;;5.19;87.60;100255.95;99446;1288;97841;-74
2022/11/07 00:50:51;;;;;;;36.80;20.90;;;;;;;5.24;87.70;100253.34;99351;1290;139278;-74
2022/11/07 00:53:18;;;;;;;35.20;20.70;;;;;;;5.29;87.58;100245.68;99476;1284;97835;-74
2022/11/07 00:55:46;;;;;;;33.80;20.60;;;;;;;5.35;87.64;100243.88;99371;1281;138198;-73
2022/11/07 00:58:13;;;;;;;34.60;20.60;;;;;;;5.40;87.66;100240.21;99401;1284;107372;-74
2022/11/07 01:00:40;;;;;;;32.00;20.10;;;;;;;5.47;87.58;100236.52;99504;1292;98345;-74
2022/11/07 01:06:01;;;;;;;30.50;19.30;;;;;;;5.61;87.49;100238.08;99525;1283;99084;-74
2022/11/07 01:08:28;;;;;;;32.30;19.90;;;;;;;5.67;87.29;100237.13;99668;1291;138191;-74
2022/11/07 01:10:56;;;;;;;35.30;19.80;;;;;;;5.71;87.25;100240.86;99722;1285;108748;-72
2022/11/07 01:13:23;;;;;;;33.20;20.20;;;;;;;5.74;87.08;100243.09;99677;1289;138815;-73
2022/11/07 01:15:50;;;;;;;32.90;20.80;;;;;;;5.74;87.08;100239.46;99770;1290;107649;-74
2022/11/07 01:18:17;;;;;;;37.90;21.40;;;;;;;5.75;86.83;100242.05;99704;1290;97908;-74
2022/11/07 01:20:44;;;;;;;34.60;19.80;;;;;;;5.76;86.83;100245.84;99764;1289;138515;-74
2022/11/07 01:23:11;;;;;;;35.60;21.70;;;;;;;5.76;86.58;100247.55;99674;1291;107280;-73
2022/11/07 01:25:40;;;;;;;31.70;20.50;;;;;;;5.75;86.74;100246.87;99409;1289;138767;-73
2022/11/07 01:28:08;;;;;;;31.60;19.90;;;;;;;5.74;86.62;100247.90;99736;1291;106076;-74
2022/11/07 01:30:37;;;;;;;33.40;21.30;;;;;;;5.73;86.56;100246.88;99769;1291;97819;-73
2022/11/07 01:33:04;;;;;;;35.40;21.20;;;;;;;5.73;86.74;100246.36;99639;1290;138651;-75
2022/11/07 01:35:31;;;;;;;33.30;21.20;;;;;;;5.72;86.92;100241.71;99755;1288;107230;-74
2022/11/07 01:37:59;;;;;;;35.00;21.70;;;;;;;5.72;86.95;100236.20;99680;1289;140267;-73
2022/11/07 01:40:26;;;;;;;37.40;22.20;;;;;;;5.71;87.00;100237.58;99842;1287;109098;-73
2022/11/07 01:42:53;;;;;;;42.70;22.10;;;;;;;5.71;87.14;100238.45;99556;1291;139543;-73
2022/11/07 01:45:24;;;;;;;37.20;21.40;;;;;;;5.70;87.23;100238.81;99785;1278;110910;-74
2022/11/07 01:47:53;;;;;;;35.40;22.80;;;;;;;5.69;87.25;100241.08;99774;1291;107827;-74
2022/11/07 01:50:20;;;;;;;34.10;22.20;;;;;;;5.68;87.51;100236.09;99728;1292;139485;-74
2022/11/07 01:52:52;;;;;;;35.00;20.90;;;;;;;5.67;87.54;100235.74;99750;1285;106361;-73
2022/11/07 01:55:24;;;;;;;37.50;21.40;;;;;;;5.67;87.45;100230.05;99690;1297;138568;-74
2022/11/07 01:57:55;;;;;;;36.30;21.50;;;;;;;5.68;87.59;100229.52;99764;1291;110124;-73
2022/11/07 02:00:23;;;;;;;37.90;21.20;;;;;;;5.69;87.63;100228.13;99534;1290;107964;-74
2022/11/07 02:02:54;;;;;;;32.80;20.30;;;;;;;5.70;87.73;100228.98;99383;1290;138706;-75
2022/11/07 02:05:26;;;;;;;32.30;21.00;;;;;;;5.71;87.65;100224.48;99449;1290;109615;-74
2022/11/07 02:07:54;;;;;;;36.20;21.50;;;;;;;5.74;87.74;100225.14;99430;1281;138801;-74
2022/11/07 02:10:23;;;;;;;31.90;20.50;;;;;;;5.77;87.68;100220.98;99492;1289;113591;-74
2022/11/07 02:12:51;;;;;;;36.80;22.20;;;;;;;5.81;87.72;100218.84;99317;1291;138736;-74
2022/11/07 02:15:18;;;;;;;33.60;21.50;;;;;;;5.81;87.71;100209.36;99566;1288;98338;-75
2022/11/07 02:17:45;;;;;;;39.60;23.60;;;;;;;5.80;87.76;100204.20;99496;1283;109095;-74
2022/11/07 02:20:13;;;;;;;41.00;22.70;;;;;;;5.78;87.69;100196.11;99442;1285;138035;-74
2022/11/07 02:22:47;;;;;;;37.70;23.30;;;;;;;5.76;87.65;100195.98;100428;1285;111949;-75
2022/11/07 02:25:17;;;;;;;38.80;24.60;;;;;;;5.77;87.80;100193.73;99872;1290;138873;-73
2022/11/07 02:27:46;;;;;;;37.10;22.90;;;;;;;5.77;87.97;100187.34;99501;1291;98478;-73
2022/11/07 02:30:18;;;;;;;39.40;24.20;;;;;;;5.77;88.09;100181.47;101186;1291;109112;-73
2022/11/07 02:32:45;;;;;;;40.10;23.50;;;;;;;5.76;87.99;100181.64;100735;1283;139399;-73
2022/11/07 02:35:42;;;;;;;39.20;23.90;;;;;;;5.77;88.29;100178.52;99828;1291;110779;-73
2022/11/07 02:38:13;;;;;;;39.20;23.60;;;;;;;5.79;88.18;100174.70;99675;1296;138456;-74
2022/11/07 02:40:41;;;;;;;34.70;23.00;;;;;;;5.82;88.27;100161.55;99773;1285;97865;-73
2022/11/07 02:43:11;;;;;;;39.30;23.80;;;;;;;5.85;88.47;100149.42;99639;1297;138975;-76
2022/11/07 02:45:42;;;;;;;37.80;23.90;;;;;;;5.90;88.60;100142.97;99664;1285;97938;-76
2022/11/07 02:48:09;;;;;;;38.90;23.80;;;;;;;5.95;88.70;100132.23;99447;1284;110256;-76
2022/11/07 02:50:36;;;;;;;43.30;25.10;;;;;;;6.00;88.93;100129.21;99656;1281;139147;-73
2022/11/07 02:53:03;;;;;;;42.10;25.50;;;;;;;6.02;88.85;100124.01;99778;1290;98324;-76
2022/11/07 02:55:30;;;;;;;41.20;26.00;;;;;;;6.04;88.92;100118.27;99669;1291;138382;-73
2022/11/07 02:57:56;;;;;;;42.90;26.30;;;;;;;6.06;89.22;100124.28;99732;1291;97923;-77
2022/11/07 03:00:24;;;;;;;41.30;24.50;;;;;;;6.09;89.11;100124.23;99740;1284;110165;-76
2022/11/07 03:02:50;;;;;;;40.60;24.40;;;;;;;6.12;89.22;100126.10;99573;1291;138564;-76
2022/11/07 03:05:19;;;;;;;37.50;25.00;;;;;;;6.15;89.27;100130.02;99728;1297;98118;-76
2022/11/07 03:07:48;;;;;;;44.40;25.10;;;;;;;6.18;89.39;100125.81;99716;1291;138361;-76
2022/11/07 03:10:17;;;;;;;42.40;25.10;;;;;;;6.21;89.32;100117.83;99471;1283;97863;-76
2022/11/07 03:12:45;;;;;;;39.90;24.00;;;;;;;6.25;89.60;100114.66;99505;1285;111547;-77
2022/11/07 03:15:13;;;;;;;41.00;24.30;;;;;;;6.29;89.77;100118.06;99418;1286;108880;-76
2022/11/07 03:17:40;;;;;;;40.20;25.30;;;;;;;6.32;89.66;100108.68;99440;1284;97834;-73
2022/11/07 03:20:11;;;;;;;44.20;27.10;;;;;;;6.34;89.76;100101.38;99325;1283;139908;-75
2022/11/07 03:22:38;;;;;;;43.80;26.40;;;;;;;6.36;89.65;100096.86;101177;1291;95939;-74
2022/11/07 03:25:08;;;;;;;43.90;26.60;;;;;;;6.35;89.65;100102.91;101196;1297;138651;-75
2022/11/07 03:27:35;;;;;;;45.90;26.80;;;;;;;6.36;89.83;100099.46;100122;1283;173976;-75
2022/11/07 03:30:02;;;;;;;40.20;24.90;;;;;;;6.37;89.88;100097.54;99839;1284;98481;-74
2022/11/07 03:32:29;;;;;;;45.20;25.80;;;;;;;6.38;89.89;100095.45;99680;1284;138469;-74
2022/11/07 03:34:56;;;;;;;45.00;25.70;;;;;;;6.39;89.74;100094.04;99764;1285;97829;-73
2022/11/07 03:37:23;;;;;;;44.10;25.80;;;;;;;6.39;89.78;100095.06;99665;1291;139739;-74
2022/11/07 03:39:51;;;;;;;43.40;26.70;;;;;;;6.39;89.69;100092.99;99674;1283;108893;-74
2022/11/07 03:42:18;;;;;;;47.30;26.30;;;;;;;6.39;89.77;100100.09;99818;1291;97847;-73
2022/11/07 03:44:45;;;;;;;44.20;27.20;;;;;;;6.38;89.51;100090.61;99617;1284;138400;-73
2022/11/07 03:47:12;;;;;;;51.70;28.00;;;;;;;6.37;89.59;100099.77;99574;1289;97843;-75
2022/11/07 03:49:39;;;;;;;49.00;27.80;;;;;;;6.34;89.61;100102.75;99618;1291;138283;-74
2022/11/07 03:52:06;;;;;;;49.50;28.20;;;;;;;6.33;89.75;100100.89;99651;1289;108890;-75
2022/11/07 03:54:33;;;;;;;49.50;28.50;;;;;;;6.30;89.83;100099.56;99770;1280;98175;-75
2022/11/07 03:57:00;;;;;;;51.20;29.60;;;;;;;6.28;89.90;100096.48;99662;1284;138370;-75
2022/11/07 03:59:27;;;;;;;51.00;29.80;;;;;;;6.26;90.54;100106.34;99780;1290;97379;-75
2022/11/07 04:01:54;;;;;;;52.50;30.70;;;;;;;6.25;90.62;100101.17;99669;1283;139479;-75
2022/11/07 04:04:22;;;;;;;59.00;30.50;;;;;;;6.24;91.52;100101.03;99731;1283;107271;-74
2022/11/07 04:06:49;;;;;;;54.40;29.20;;;;;;;6.23;91.07;100095.35;99644;1292;138668;-74
2022/11/07 04:09:16;;;;;;;56.00;29.80;;;;;;;6.24;91.21;100096.38;99731;1292;108047;-75
2022/11/07 04:17:19;;;;;;;54.80;30.30;;;;;;;6.29;91.51;100084.90;99705;1297;108122;-76
2022/11/07 04:19:46;;;;;;;54.90;30.30;;;;;;;6.30;91.70;100087.80;99712;1290;138504;-76
2022/11/07 04:22:13;;;;;;;61.30;30.60;;;;;;;6.32;91.81;100095.72;99854;1291;107682;-75
2022/11/07 04:24:40;;;;;;;59.30;31.30;;;;;;;6.32;91.86;100094.17;99868;1291;98024;-75
2022/11/07 04:29:57;;;;;;;57.80;30.50;;;;;;;6.35;92.08;100088.42;99793;1292;107334;-75
2022/11/07 04:32:25;;;;;;;60.20;30.90;;;;;;;6.35;91.97;100085.83;99616;1291;138789;-75
2022/11/07 04:34:52;;;;;;;58.80;30.60;;;;;;;6.38;91.95;100083.02;99800;1283;107313;-75
2022/11/07 04:37:19;;;;;;;57.40;30.60;;;;;;;6.40;92.14;100077.45;99690;1284;138791;-75
2022/11/07 04:39:46;;;;;;;53.30;30.80;;;;;;;6.42;92.22;100079.66;99852;1291;111279;-76
2022/11/07 04:42:13;;;;;;;55.90;30.40;;;;;;;6.42;92.19;100076.36;99749;1291;108078;-75
2022/11/07 04:44:40;;;;;;;54.80;31.50;;;;;;;6.43;92.29;100069.10;99706;1286;138608;-76
2022/11/07 04:47:07;;;;;;;52.60;29.50;;;;;;;6.45;92.19;100073.37;99741;1291;107259;-75
2022/11/07 04:49:34;;;;;;;52.30;29.10;;;;;;;6.45;92.20;100073.36;99656;1299;139566;-75
2022/11/07 04:52:01;;;;;;;55.90;31.50;;;;;;;6.47;92.55;100073.17;99731;1289;111291;-75
2022/11/07 04:54:28;;;;;;;58.20;29.90;;;;;;;6.45;92.21;100068.17;99766;1294;107265;-75
2022/11/07 04:56:55;;;;;;;57.20;30.80;;;;;;;6.46;92.38;100064.03;99654;1291;138530;-75
2022/11/07 04:59:22;;;;;;;57.60;31.10;;;;;;;6.47;92.68;100055.56;99763;1290;109144;-75
2022/11/07 05:01:48;;;;;;;56.10;30.50;;;;;;;6.47;92.68;100053.83;99660;1291;143120;-75
2022/11/07 05:04:16;;;;;;;56.50;31.70;;;;;;;6.48;92.82;100052.27;99755;1285;110779;-75
2022/11/07 05:06:43;;;;;;;57.50;30.60;;;;;;;6.47;93.13;100055.05;99751;1291;107121;-75
2022/11/07 05:09:14;;;;;;;53.90;28.80;;;;;;;6.46;93.02;100040.37;99526;1291;225581;-75
2022/11/07 05:11:41;;;;;;;62.70;31.50;;;;;;;6.47;92.94;100039.50;99441;1291;106736;-75
2022/11/07 05:14:08;;;;;;;55.00;30.70;;;;;;;6.50;93.12;100041.34;99324;1285;138569;-74
2022/11/07 05:16:36;;;;;;;62.80;31.10;;;;;;;6.54;93.25;100044.89;99473;1290;109863;-73
2022/11/07 05:19:03;;;;;;;54.20;31.10;;;;;;;6.54;93.35;100041.95;99314;1291;139477;-75
2022/11/07 05:21:30;;;;;;;55.30;30.70;;;;;;;6.52;93.46;100043.38;99531;1291;97512;-74
2022/11/07 05:23:57;;;;;;;55.20;29.80;;;;;;;6.52;93.54;100037.16;99362;1291;106913;-75
2022/11/07 05:26:24;;;;;;;57.60;32.50;;;;;;;6.52;93.73;100038.20;99324;1291;138885;-75
2022/11/07 05:28:51;;;;;;;59.00;29.20;;;;;;;6.50;94.12;100038.05;99543;1281;113372;-75
2022/11/07 05:31:19;;;;;;;60.90;32.40;;;;;;;6.51;94.30;100041.49;99357;1290;139396;-74
2022/11/07 05:33:46;;;;;;;63.00;30.40;;;;;;;6.51;94.34;100033.38;99472;1291;97815;-74
2022/11/07 05:36:16;;;;;;;58.20;31.30;;;;;;;6.53;94.29;100035.41;99774;1285;107139;-75
2022/11/07 05:38:44;;;;;;;58.70;30.90;;;;;;;6.54;94.41;100035.73;99640;1294;139248;-74
2022/11/07 05:41:12;;;;;;;56.70;31.70;;;;;;;6.56;94.50;100033.95;99746;1291;110819;-77
2022/11/07 05:43:40;;;;;;;62.00;32.40;;;;;;;6.58;94.76;100038.06;99668;1291;138646;-74
2022/11/07 05:46:07;;;;;;;59.80;33.00;;;;;;;6.61;94.82;100036.80;99804;1285;98320;-74
2022/11/07 05:48:35;;;;;;;56.30;31.80;;;;;;;6.62;94.83;100025.87;99730;1286;106841;-76
2022/11/07 05:51:03;;;;;;;65.00;32.10;;;;;;;6.64;94.90;100026.55;99410;1284;138490;-74
2022/11/07 05:53:31;;;;;;;63.00;31.50;;;;;;;6.68;95.23;100026.14;99768;1291;110629;-75
2022/11/07 05:55:58;;;;;;;57.00;31.00;;;;;;;6.71;94.97;100030.24;99646;1290;138745;-76
2022/11/07 05:58:26;;;;;;;56.80;30.60;;;;;;;6.74;95.09;100032.43;99806;1291;97919;-78
2022/11/07 06:00:53;;;;;;;48.50;28.40;;;;;;;6.76;95.41;100033.91;99535;1284;138352;-76
2022/11/07 06:03:20;;;;;;;50.70;29.20;;;;;;;6.80;95.42;100042.30;99823;1299;97926;-74
2022/11/07 06:05:48;;;;;;;53.20;29.00;;;;;;;6.82;95.44;100041.92;99835;1298;110949;-75
2022/11/07 06:08:15;;;;;;;52.50;29.90;;;;;;;6.86;95.49;100037.88;99707;1290;138836;-76
2022/11/07 06:10:43;;;;;;;47.20;28.00;;;;;;;6.90;95.67;100043.66;99615;1284;99227;-78
2022/11/07 06:13:13;;;;;;;54.70;28.60;;;;;;;6.93;95.39;100043.77;99673;1284;139810;-80
2022/11/07 06:15:42;;;;;;;59.30;30.50;;;;;;;6.97;95.56;100045.06;99653;1291;97745;-77
2022/11/07 06:18:14;;;;;;;50.60;28.90;;;;;;;7.00;95.66;100045.88;99711;1284;111225;-77
2022/11/07 06:20:42;;;;;;;53.70;30.10;;;;;;;7.03;95.48;100050.66;99592;1284;138579;-74
2022/11/07 06:23:10;;;;;;;54.10;28.80;;;;;;;7.05;95.72;100055.45;99843;1292;98360;-76
2022/11/07 06:25:37;;;;;;;51.90;28.80;;;;;;;7.07;95.86;100055.25;99794;1291;138231;-74
2022/11/07 06:28:07;;;;;;;52.50;28.60;;;;;;;7.08;95.82;100055.57;99810;1291;97635;-76
2022/11/07 06:30:34;;;;;;;50.10;28.90;;;;;;;7.09;95.79;100056.91;99687;1284;111869;-75
2022/11/07 06:33:04;;;;;;;55.50;29.00;;;;;;;7.11;95.81;100054.98;99643;1292;138301;-74
2022/11/07 06:35:31;;;;;;;48.70;27.30;;;;;;;7.14;95.87;100053.19;99794;1283;97833;-75
2022/11/07 06:38:00;;;;;;;51.90;27.50;;;;;;;7.16;95.99;100061.08;99694;1283;138611;-80
2022/11/07 06:40:27;;;;;;;48.20;28.00;;;;;;;7.19;96.27;100062.95;99857;1292;97920;-80
2022/11/07 06:42:54;;;;;;;53.90;28.60;;;;;;;7.20;96.12;100057.55;99761;1290;138466;-79
2022/11/07 06:45:21;;;;;;;47.00;27.50;;;;;;;7.23;96.07;100059.58;99796;1285;105682;-81
2022/11/07 06:47:48;;;;;;;46.40;27.70;;;;;;;7.26;96.18;100058.29;99852;1284;97881;-75
2022/11/07 06:50:15;;;;;;;45.90;26.50;;;;;;;7.27;96.37;100053.59;99723;1291;139938;-76
2022/11/07 06:52:41;;;;;;;45.90;26.60;;;;;;;7.29;96.43;100053.89;99728;1288;97816;-76
2022/11/07 06:55:09;;;;;;;49.90;27.80;;;;;;;7.30;96.47;100047.47;99762;1291;138599;-73
2022/11/07 06:57:36;;;;;;;48.40;27.70;;;;;;;7.32;96.41;100050.04;99815;1304;106732;-73
2022/11/07 07:00:05;;;;;;;46.80;28.00;;;;;;;7.34;96.53;100054.82;99868;1292;98306;-74
2022/11/07 07:02:32;;;;;;;42.60;24.40;;;;;;;7.36;96.52;100055.48;100269;1299;139018;-75
2022/11/07 07:05:19;;;;;;;42.30;25.80;;;;;;;7.39;96.66;100058.02;101357;1299;95848;-74
2022/11/07 07:07:47;;;;;;;43.30;25.20;;;;;;;7.42;96.53;100054.84;101108;1295;139339;-73
2022/11/07 07:10:14;;;;;;;40.10;25.50;;;;;;;7.47;96.45;100058.51;101257;1292;107900;-73
2022/11/07 07:12:41;;;;;;;40.00;23.80;;;;;;;7.51;96.52;100058.06;101349;1291;95995;-73
2022/11/07 07:15:11;;;;;;;43.90;24.20;;;;;;;7.56;96.18;100054.34;101257;1291;138344;-74
2022/11/07 07:17:37;;;;;;;40.60;24.80;;;;;;;7.60;96.42;100053.38;101363;1291;96228;-73
2022/11/07 07:20:05;;;;;;;40.40;23.80;;;;;;;7.63;96.18;100054.52;101152;1291;138733;-74
2022/11/07 07:22:32;;;;;;;42.30;24.50;;;;;;;7.66;96.06;100048.04;101260;1299;107469;-75
2022/11/07 07:24:59;;;;;;;40.20;24.60;;;;;;;7.70;96.01;100055.39;101187;1292;138686;-76
2022/11/07 07:27:26;;;;;;;40.20;24.50;;;;;;;7.73;95.73;100048.75;101310;1285;107271;-74
2022/11/07 07:29:53;;;;;;;41.30;24.60;;;;;;;7.77;95.66;100049.52;101177;1295;96377;-75
2022/11/07 07:32:20;;;;;;;37.70;22.30;;;;;;;7.80;95.58;100051.52;101199;1299;139493;-75
2022/11/07 07:34:47;;;;;;;34.80;22.30;;;;;;;7.83;95.55;100053.52;101271;1291;107134;-74
2022/11/07 07:37:14;;;;;;;32.70;22.00;;;;;;;7.85;95.47;100054.33;101194;1291;140433;-73
2022/11/07 07:39:41;;;;;;;34.40;22.00;;;;;;;7.89;95.39;100053.38;101198;1291;108428;-73
2022/11/07 07:42:08;;;;;;;36.90;22.30;;;;;;;7.93;95.42;100053.48;99855;1293;97827;-73
2022/11/07 07:44:36;;;;;;;39.80;22.00;;;;;;;7.96;95.25;100051.33;99639;1283;138377;-72
2022/11/07 07:47:03;;;;;;;37.60;23.40;;;;;;;7.99;95.20;100045.36;99771;1291;106542;-76
2022/11/07 07:49:37;;;;;;;34.80;22.50;;;;;;;8.02;95.14;100040.77;99550;1299;139897;-73
2022/11/07 07:52:05;;;;;;;39.70;22.90;;;;;;;8.06;95.18;100039.45;99647;1293;107019;-74
2022/11/07 07:54:32;;;;;;;36.60;22.90;;;;;;;8.08;95.12;100044.44;99587;1299;97919;-72
2022/11/07 07:57:00;;;;;;;36.00;23.20;;;;;;;8.09;94.99;100041.81;99652;1296;138696;-74
2022/11/07 07:59:29;;;;;;;36.20;22.70;;;;;;;8.10;95.01;100038.85;99779;1298;105863;-73
2022/11/07 08:01:56;;;;;;;36.70;22.70;;;;;;;8.13;94.99;100043.96;99613;1291;139820;-73
2022/11/07 08:04:25;;;;;;;41.30;23.20;;;;;;;8.13;95.06;100039.11;99632;1285;107947;-75
2022/11/07 08:06:52;;;;;;;38.20;24.20;;;;;;;8.14;95.11;100047.06;99503;1291;138577;-75
2022/11/07 08:09:19;;;;;;;37.00;22.60;;;;;;;8.15;95.05;100043.23;99753;1291;114299;-74
2022/11/07 08:11:49;;;;;;;37.10;23.20;;;;;;;8.16;95.12;100045.44;99671;1290;106487;-74
2022/11/07 08:14:16;;;;;;;38.70;23.80;;;;;;;8.20;95.01;100042.73;99625;1291;140252;-73
2022/11/07 08:16:43;;;;;;;34.40;22.30;;;;;;;8.22;94.98;100041.63;99667;1284;106908;-78
2022/11/07 08:19:10;;;;;;;35.10;22.90;;;;;;;8.26;94.85;100037.90;99615;1284;140239;-73
2022/11/07 08:21:37;;;;;;;36.90;23.70;;;;;;;8.30;94.82;100040.42;99682;1298;111868;-73
2022/11/07 08:24:04;;;;;;;38.50;22.60;;;;;;;8.33;94.85;100041.55;99682;1293;107456;-74
2022/11/07 08:26:31;;;;;;;35.00;21.50;;;;;;;8.37;94.80;100041.98;99698;1291;140133;-74
2022/11/07 08:28:58;;;;;;;35.90;20.90;;;;;;;8.41;94.79;100031.98;99745;1291;109149;-74
2022/11/07 08:31:25;;;;;;;31.90;21.20;;;;;;;8.48;94.62;100043.26;99583;1284;138793;-73
2022/11/07 08:33:52;;;;;;;32.00;20.70;;;;;;;8.55;94.52;100037.51;99776;1278;111467;-74
2022/11/07 08:36:19;;;;;;;33.30;21.90;;;;;;;8.62;94.26;100036.11;99735;1297;108790;-75
2022/11/07 08:38:46;;;;;;;36.10;20.90;;;;;;;8.70;94.15;100032.77;99543;1285;138704;-75
2022/11/07 08:41:13;;;;;;;32.20;20.10;;;;;;;8.80;93.97;100031.10;99738;1292;106602;-74
2022/11/07 08:43:47;;;;;;;34.40;21.00;;;;;;;8.91;93.74;100027.64;99762;1288;138538;-74
2022/11/07 08:46:14;;;;;;;32.90;19.60;;;;;;;9.16;93.55;100027.61;99853;1301;110582;-73
2022/11/07 08:48:42;;;;;;;28.80;20.00;;;;;;;9.46;92.71;100024.11;99822;1298;108944;-74
2022/11/07 08:51:10;;;;;;;32.20;19.30;;;;;;;9.65;91.80;100025.92;99560;1284;138289;-74
2022/11/07 08:53:37;;;;;;;26.60;17.70;;;;;;;9.80;91.04;100027.19;99790;1293;107816;-74
2022/11/07 08:56:06;;;;;;;28.60;19.40;;;;;;;9.92;90.52;100022.80;99701;1288;138404;-74
2022/11/07 08:58:33;;;;;;;31.30;18.50;;;;;;;10.07;90.10;100020.20;99789;1298;110268;-75
2022/11/07 09:01:00;;;;;;;28.60;18.50;;;;;;;10.23;89.47;100020.20;99681;1297;138571;-75
2022/11/07 09:03:28;;;;;;;29.50;19.40;;;;;;;10.43;88.92;100017.96;99910;1278;98150;-76
2022/11/07 09:06:15;;;;;;;28.70;18.50;;;;;;;10.59;88.08;100013.02;99854;1291;107758;-74
2022/11/07 09:08:42;;;;;;;30.00;19.10;;;;;;;10.77;87.54;100016.71;101180;1290;141136;-80
2022/11/07 09:11:09;;;;;;;22.80;17.00;;;;;;;10.96;87.05;100016.91;99909;1290;111201;-75
2022/11/07 09:13:36;;;;;;;29.00;18.00;;;;;;;11.21;87.38;100006.37;100062;1291;138692;-89
2022/11/07 09:16:05;;;;;;;25.20;17.40;;;;;;;11.55;87.13;100007.65;101452;1292;95917;-82
2022/11/07 09:18:33;;;;;;;26.00;17.40;;;;;;;11.88;85.99;100011.90;101367;1298;108894;-81
2022/11/07 09:21:00;;;;;;;27.10;18.50;;;;;;;12.08;84.37;100007.92;100077;1290;138128;-80
2022/11/07 09:23:27;;;;;;;28.10;17.90;;;;;;;12.28;83.78;100005.52;99943;1291;112063;-80
2022/11/07 09:25:55;;;;;;;25.10;17.20;;;;;;;12.44;83.06;100007.63;99839;1297;138323;-79
2022/11/07 09:28:21;;;;;;;26.70;17.00;;;;;;;12.55;82.55;99995.45;100046;1295;97916;-79
2022/11/07 09:30:52;;;;;;;23.30;16.60;;;;;;;12.61;82.11;99995.16;99922;1291;108674;-79
2022/11/07 09:33:19;;;;;;;25.30;17.40;;;;;;;12.55;80.82;99995.26;99896;1290;97692;-78
2022/11/07 09:35:46;;;;;;;24.40;16.20;;;;;;;12.47;80.66;99999.30;99863;1282;111783;-79
2022/11/07 09:38:14;;;;;;;23.10;16.00;;;;;;;12.36;80.51;100002.73;99786;1297;138456;-78
2022/11/07 09:40:48;;;;;;;24.70;15.60;;;;;;;12.26;80.07;99997.42;99822;1284;97855;-80
2022/11/07 09:43:41;;;;;;;21.30;14.10;;;;;;;12.15;80.06;99995.98;99820;1296;138534;-78
2022/11/07 09:46:23;;;;;;;20.70;14.70;;;;;;;12.02;80.04;99995.99;99920;1294;97933;-76
2022/11/07 09:48:55;;;;;;;22.60;14.80;;;;;;;11.95;80.61;99990.37;99957;1291;111143;-78
2022/11/07 09:51:29;;;;;;;21.80;14.30;;;;;;;11.91;80.74;99988.79;99872;1290;107696;-76
2022/11/07 09:54:01;;;;;;;24.30;14.60;;;;;;;11.87;80.12;99986.85;101466;1285;95977;-76
2022/11/07 09:56:29;;;;;;;21.70;14.80;;;;;;;11.82;80.46;99980.28;101341;1291;137819;-78
2022/11/07 09:59:00;;;;;;;20.50;14.00;;;;;;;11.80;80.30;99982.59;101459;1298;95979;-79
2022/11/07 10:01:31;;;;;;;27.40;12.80;;;;;;;11.79;79.93;99981.11;101236;1291;138578;-74
2022/11/07 10:03:59;;;;;;;22.80;12.30;;;;;;;11.78;79.38;99974.66;100147;1299;108673;-78
2022/11/07 10:06:50;;;;;;;20.10;12.20;;;;;;;11.79;78.59;99969.94;99826;1291;97836;-74
2022/11/07 10:09:22;;;;;;;20.80;11.70;;;;;;;11.77;78.38;99969.99;99767;1290;107995;-75
2022/11/07 10:11:57;;;;;;;19.30;11.90;;;;;;;11.78;78.12;99971.01;99812;1284;98455;-77
2022/11/07 10:14:34;;;;;;;18.40;12.40;;;;;;;11.80;78.27;99970.06;99803;1291;137524;-77
2022/11/07 10:17:11;;;;;;;;;;;;;;;11.86;78.51;99964.45;99806;1291;107315;-75
2022/11/07 10:19:56;;;;;;;18.70;11.70;;;;;;;11.90;77.79;99965.14;99763;1288;123975;-74
2022/11/07 10:22:36;;;;;;;21.40;12.10;;;;;;;11.93;77.55;99966.58;99760;1282;107824;-76
2022/11/07 10:25:25;;;;;;;18.10;11.90;;;;;;;11.92;76.97;99969.23;99801;1290;137844;-77
2022/11/07 10:28:08;;;;;;;19.30;11.70;;;;;;;11.88;76.84;99970.11;99803;1292;111658;-78
2022/11/07 10:30:35;;;;;;;28.90;13.00;;;;;;;11.83;76.61;99964.40;99728;1292;108280;-77
2022/11/07 10:33:10;;;;;;;26.60;11.50;;;;;;;11.79;77.00;99961.91;99726;1285;139025;-77
2022/11/07 10:35:42;;;;;;;21.40;12.40;;;;;;;11.78;77.23;99963.68;99874;1290;106841;-76
2022/11/07 10:38:21;;;;;;;20.50;11.70;;;;;;;11.79;76.98;99960.88;99765;1290;138412;-78
2022/11/07 10:40:50;;;;;;;20.00;11.30;;;;;;;11.82;76.78;99955.20;99842;1300;112089;-78
2022/11/07 10:43:22;;;;;;;16.70;10.90;;;;;;;11.87;76.73;99958.31;99687;1291;139868;-76
2022/11/07 10:45:50;;;;;;;17.00;10.30;;;;;;;11.91;76.43;99959.89;101405;1291;96010;-77
2022/11/07 10:48:17;;;;;;;15.00;10.30;;;;;;;11.95;75.62;99959.69;101379;1291;107506;-77
2022/11/07 10:50:54;;;;;;;18.40;11.50;;;;;;;11.99;75.38;99959.37;101265;1277;138242;-75
2022/11/07 10:53:24;;;;;;;43.70;12.60;;;;;;;12.10;75.81;99955.91;99916;1283;110869;-76
2022/11/07 10:55:52;;;;;;;17.70;11.60;;;;;;;12.22;75.29;99953.30;100065;1277;137838;-74
2022/11/07 10:58:22;;;;;;;55.00;12.40;;;;;;;12.32;74.79;99945.02;99960;1291;97853;-76
2022/11/07 11:00:59;;;;;;;41.60;14.90;;;;;;;12.33;73.03;99940.98;99840;1290;107465;-78
2022/11/07 11:03:30;;;;;;;20.50;11.50;;;;;;;12.27;72.56;99948.23;100014;1282;97703;-75
2022/11/07 11:06:22;;;;;;;17.50;11.10;;;;;;;12.18;72.70;99951.73;99944;1292;111576;-78
2022/11/07 11:08:51;;;;;;;20.00;10.90;;;;;;;12.16;72.84;99949.20;99764;1290;137692;-77
2022/11/07 11:11:27;;;;;;;16.50;10.90;;;;;;;12.17;72.87;99955.81;99836;1290;99555;-82
2022/11/07 11:14:03;;;;;;;17.50;11.40;;;;;;;12.17;72.79;99945.69;99789;1290;137615;-79
2022/11/07 11:16:34;;;;;;;17.30;11.60;;;;;;;12.14;72.91;99953.67;99855;1284;97778;-77
2022/11/07 11:19:02;;;;;;;18.50;11.00;;;;;;;12.12;72.95;99954.60;99630;1284;137776;-79
2022/11/07 11:21:40;;;;;;;17.40;11.00;;;;;;;12.09;72.34;99955.43;99949;1284;107504;-77
2022/11/07 11:24:17;;;;;;;17.90;10.30;;;;;;;12.02;71.97;99957.48;99929;1295;97849;-77
2022/11/07 11:26:47;;;;;;;17.40;10.30;;;;;;;11.97;71.83;99955.95;99776;1284;137987;-76
2022/11/07 11:29:20;;;;;;;19.70;10.60;;;;;;;11.93;71.96;99960.32;100193;1291;97713;-76